Newmarket, Canada
Current Conditions -  °F | °C
As of 12:00 AM on Saturday 29 Nov 2014 (Local Time) from CYKZ Reporting Station
Overcast Overcast  
Wind Chill: 23°   Ceiling: 3900
Heat Index: 23°   Visibility: 15mi
Dew Point: 12°   Wind: 0mph
Humidity: 63%   Direction: NA
Pressure: 30.17"   Gusts: NA
Location:  44.04°N, 79.46°W
Report Text: CYKZ 290500Z 00000KT 15SM BKN039 OVC092 M05/M11 A3017 RMK SC6AS2 SLP227
Loading
Personal Weather Stations






























Interactive Weather Map New forecast layout! Learn more

10-Day Weather Forecast

Advertisements
Track Severe Weather on mobile